Time;durP1;ratioP1;P1;durP2;ratioP2;P2;SDS_P1;SDS_P2;PMS_P1;PMS_P2;Temp;Humidity;BMP_temperature;BMP_pressure;BME280_temperature;BME280_humidity;BME280_pressure;Samples;Min_cycle;Max_cycle;Signal;HPM_P1;HPM_P2
2021/03/11 00:01:29;;;;;;;9.82;6.57;;;15.10;99.90;;;;;;5053302;28;20021;-64
2021/03/11 00:03:54;;;;;;;12.30;6.65;;;15.10;99.90;;;;;;5053208;28;20037;-62
2021/03/11 00:06:20;;;;;;;9.23;6.20;;;15.10;99.90;;;;;;5053164;28;20052;-64
2021/03/11 00:08:45;;;;;;;8.93;6.25;;;15.10;99.90;;;;;;5053035;28;20029;-64
2021/03/11 00:11:11;;;;;;;8.70;6.25;;;15.00;99.90;;;;;;5053268;28;20025;-65
2021/03/11 00:13:36;;;;;;;8.98;6.32;;;15.00;99.90;;;;;;5053201;28;20088;-64
2021/03/11 00:16:02;;;;;;;8.32;6.43;;;15.00;99.90;;;;;;5052556;28;20068;-63
2021/03/11 00:18:28;;;;;;;9.20;7.00;;;15.00;99.90;;;;;;5052882;28;20027;-64
2021/03/11 00:20:54;;;;;;;9.95;7.05;;;15.00;99.90;;;;;;5052861;28;20354;-66
2021/03/11 00:23:19;;;;;;;14.20;6.82;;;15.00;99.90;;;;;;5052752;28;20025;-65
2021/03/11 00:25:45;;;;;;;10.60;6.30;;;15.00;99.90;;;;;;5052708;28;20063;-62
2021/03/11 00:28:10;;;;;;;9.90;7.10;;;15.00;99.90;;;;;;5053178;28;20025;-64
2021/03/11 00:30:36;;;;;;;9.80;7.10;;;15.00;99.90;;;;;;5052606;28;20029;-65
2021/03/11 00:33:02;;;;;;;11.48;6.97;;;15.00;99.90;;;;;;5052506;28;20076;-65
2021/03/11 00:35:27;;;;;;;9.02;6.72;;;15.00;99.90;;;;;;5052783;28;20154;-65
2021/03/11 00:37:53;;;;;;;8.60;6.88;;;15.00;99.90;;;;;;5051939;28;20032;-64
2021/03/11 00:40:20;;;;;;;10.15;7.70;;;15.00;99.90;;;;;;5052150;28;20033;-64
2021/03/11 00:42:47;;;;;;;10.63;7.57;;;15.00;99.90;;;;;;5052286;28;20020;-65
2021/03/11 00:45:14;;;;;;;8.90;6.97;;;15.00;99.90;;;;;;5051491;28;20035;-65
2021/03/11 00:47:40;;;;;;;9.05;7.32;;;15.00;99.90;;;;;;5052654;28;20500;-65
2021/03/11 00:50:08;;;;;;;9.43;7.35;;;15.00;99.90;;;;;;5052308;28;20472;-65
2021/03/11 00:52:34;;;;;;;9.27;7.03;;;15.00;99.90;;;;;;5052213;28;20428;-64
2021/03/11 00:55:00;;;;;;;10.70;7.18;;;15.00;99.90;;;;;;5052450;28;20469;-64
2021/03/11 00:57:25;;;;;;;10.00;7.65;;;15.00;99.90;;;;;;5052303;28;20488;-64
2021/03/11 00:59:51;;;;;;;11.02;7.25;;;15.00;99.90;;;;;;5052349;28;20021;-63
2021/03/11 01:02:16;;;;;;;9.90;7.35;;;15.00;99.90;;;;;;5052179;28;20024;-64
2021/03/11 01:04:42;;;;;;;9.07;7.60;;;15.00;99.90;;;;;;5052327;28;20029;-63
2021/03/11 01:07:08;;;;;;;8.85;7.15;;;15.00;99.90;;;;;;5051959;28;20049;-63
2021/03/11 01:09:33;;;;;;;8.20;6.40;;;15.00;99.90;;;;;;5051879;28;20571;-64
2021/03/11 01:11:59;;;;;;;8.55;6.50;;;15.00;99.90;;;;;;5050504;28;20067;-63
2021/03/11 01:14:25;;;;;;;9.25;7.47;;;15.00;99.90;;;;;;5051698;28;20028;-63
2021/03/11 01:16:52;;;;;;;10.02;7.32;;;15.00;99.90;;;;;;5051912;28;20044;-64
2021/03/11 01:19:18;;;;;;;9.95;7.45;;;15.00;99.90;;;;;;5051895;28;20021;-64
2021/03/11 01:21:44;;;;;;;9.35;7.53;;;15.00;99.90;;;;;;5052246;28;20075;-64
2021/03/11 01:24:09;;;;;;;10.93;7.80;;;15.00;99.90;;;;;;5051834;28;20474;-63
2021/03/11 01:26:35;;;;;;;10.77;7.25;;;15.00;99.90;;;;;;5051677;28;20025;-63
2021/03/11 01:29:01;;;;;;;8.40;6.88;;;15.00;99.90;;;;;;5050367;28;20040;-64
2021/03/11 01:31:30;;;;;;;9.68;7.28;;;15.00;99.90;;;;;;5051853;28;20040;-63
2021/03/11 01:33:55;;;;;;;8.32;7.43;;;15.00;99.90;;;;;;5051692;28;20025;-63
2021/03/11 01:36:21;;;;;;;9.48;7.53;;;15.00;99.90;;;;;;5051618;28;20396;-64
2021/03/11 01:38:47;;;;;;;8.55;7.38;;;15.00;99.90;;;;;;5051928;28;20033;-63
2021/03/11 01:41:13;;;;;;;9.07;6.95;;;15.00;99.90;;;;;;5051941;28;20024;-64
2021/03/11 01:43:39;;;;;;;12.05;7.38;;;15.00;99.90;;;;;;5051664;28;20389;-63
2021/03/11 01:46:05;;;;;;;8.88;7.35;;;15.00;99.90;;;;;;5051548;28;20025;-63
2021/03/11 01:48:30;;;;;;;10.50;7.07;;;15.00;99.90;;;;;;5051465;28;20365;-65
2021/03/11 01:50:56;;;;;;;8.85;7.30;;;15.00;99.90;;;;;;5055345;28;20143;-65
2021/03/11 01:53:22;;;;;;;9.38;6.88;;;15.00;99.90;;;;;;5055639;28;20067;-62
2021/03/11 01:55:48;;;;;;;10.85;7.43;;;15.00;99.90;;;;;;5051299;28;20052;-63
2021/03/11 01:58:13;;;;;;;8.18;6.95;;;15.00;99.90;;;;;;5035891;28;20072;-63
2021/03/11 02:00:39;;;;;;;7.93;6.75;;;15.00;99.90;;;;;;5035601;28;20068;-63
2021/03/11 02:03:05;;;;;;;9.82;6.97;;;15.00;99.90;;;;;;5035494;28;20018;-63
2021/03/11 02:05:31;;;;;;;9.63;6.97;;;15.00;99.90;;;;;;5035425;28;20362;-63
2021/03/11 02:07:56;;;;;;;8.10;6.53;;;14.90;99.90;;;;;;5035443;28;20021;-63
2021/03/11 02:10:24;;;;;;;11.98;6.80;;;14.90;99.90;;;;;;5035480;28;20105;-62
2021/03/11 02:13:14;;;;;;;9.45;7.20;;;14.90;99.90;;;;;;5040426;28;20110;-63
2021/03/11 02:15:58;;;;;;;8.23;6.97;;;14.90;99.90;;;;;;5055320;28;20025;-63
2021/03/11 02:18:55;;;;;;;11.80;7.15;;;14.90;99.90;;;;;;5055054;28;20025;-64
2021/03/11 02:21:41;;;;;;;8.68;7.30;;;15.00;99.90;;;;;;5033174;28;20117;-63
2021/03/11 02:24:12;;;;;;;10.05;6.65;;;15.00;99.90;;;;;;5035327;28;20021;-63
2021/03/11 02:26:59;;;;;;;7.30;6.38;;;15.00;99.90;;;;;;5035172;28;20028;-62
2021/03/11 02:29:30;;;;;;;9.70;7.40;;;14.90;99.90;;;;;;5035061;28;20076;-64
2021/03/11 02:31:58;;;;;;;9.23;7.38;;;15.00;99.90;;;;;;5033708;28;20025;-62
2021/03/11 02:34:28;;;;;;;9.18;7.10;;;15.00;99.90;;;;;;5054578;28;20033;-62
2021/03/11 02:36:58;;;;;;;8.60;6.68;;;15.00;99.90;;;;;;5054778;28;20070;-64
2021/03/11 02:39:27;;;;;;;9.43;6.97;;;14.90;99.90;;;;;;5054902;28;20197;-62
2021/03/11 02:41:55;;;;;;;7.63;6.82;;;15.00;99.90;;;;;;5054768;28;20037;-64
2021/03/11 02:44:21;;;;;;;7.93;6.65;;;14.90;99.90;;;;;;5055184;28;20032;-62
2021/03/11 02:46:49;;;;;;;7.72;6.43;;;14.90;99.90;;;;;;5054957;28;20029;-64
2021/03/11 02:49:16;;;;;;;8.23;6.85;;;14.90;99.90;;;;;;5054439;28;20152;-63
2021/03/11 02:51:42;;;;;;;8.55;6.50;;;14.90;99.90;;;;;;5054619;28;20128;-65
2021/03/11 02:54:09;;;;;;;7.78;6.53;;;14.90;99.90;;;;;;5054641;28;20056;-64
2021/03/11 02:56:35;;;;;;;8.13;6.28;;;14.90;99.90;;;;;;5054630;28;20025;-64
2021/03/11 02:59:01;;;;;;;7.20;6.40;;;14.90;99.90;;;;;;5054745;28;20048;-64
2021/03/11 03:01:28;;;;;;;7.85;6.75;;;14.90;99.90;;;;;;5054127;28;20426;-63
2021/03/11 03:03:54;;;;;;;9.15;6.43;;;14.90;99.90;;;;;;5054361;28;20029;-63
2021/03/11 03:06:20;;;;;;;7.82;6.22;;;14.90;99.90;;;;;;5054637;28;20143;-62
2021/03/11 03:08:47;;;;;;;9.18;6.70;;;14.90;99.90;;;;;;5054659;28;20473;-64
2021/03/11 03:11:15;;;;;;;7.88;5.82;;;14.90;99.90;;;;;;5054339;28;20025;-62
2021/03/11 03:13:42;;;;;;;6.88;5.95;;;14.90;99.90;;;;;;5053930;28;20131;-64
2021/03/11 03:16:08;;;;;;;7.18;6.43;;;14.90;99.90;;;;;;5054193;28;20025;-64
2021/03/11 03:18:35;;;;;;;9.20;6.25;;;14.90;99.90;;;;;;5054134;28;20017;-64
2021/03/11 03:21:05;;;;;;;9.88;6.40;;;14.90;99.90;;;;;;5054216;28;20022;-64
2021/03/11 03:23:31;;;;;;;7.78;6.07;;;14.90;99.90;;;;;;5054149;28;20104;-64
2021/03/11 03:25:57;;;;;;;8.15;6.43;;;14.90;99.90;;;;;;5053898;28;20392;-64
2021/03/11 03:28:22;;;;;;;7.20;6.22;;;14.90;99.90;;;;;;5054320;28;20027;-63
2021/03/11 03:30:48;;;;;;;6.68;5.88;;;14.90;99.90;;;;;;5053897;28;20029;-62
2021/03/11 03:33:16;;;;;;;7.72;6.00;;;14.90;99.90;;;;;;5053871;28;20051;-63
2021/03/11 03:35:42;;;;;;;7.80;6.10;;;14.90;99.90;;;;;;5053898;28;20025;-63
2021/03/11 03:38:08;;;;;;;9.13;6.43;;;14.90;99.90;;;;;;5053825;28;20135;-63
2021/03/11 03:40:35;;;;;;;10.57;6.18;;;14.90;99.90;;;;;;5053797;28;20036;-64
2021/03/11 03:43:21;;;;;;;8.48;5.88;;;14.90;99.90;;;;;;5053752;28;20025;-64
2021/03/11 03:46:07;;;;;;;10.50;5.72;;;15.00;99.90;;;;;;5053632;28;20543;-63
2021/03/11 03:48:47;;;;;;;9.40;5.88;;;15.00;99.90;;;;;;5046227;28;20045;-64
2021/03/11 03:51:17;;;;;;;8.77;5.75;;;15.00;99.90;;;;;;5053605;28;20076;-64
2021/03/11 03:53:46;;;;;;;6.57;5.47;;;15.00;99.90;;;;;;5053546;28;20059;-65
2021/03/11 03:56:16;;;;;;;6.20;5.32;;;14.90;99.90;;;;;;5045695;28;20033;-65
2021/03/11 03:58:43;;;;;;;7.30;5.38;;;14.90;99.90;;;;;;5033765;28;20051;-63
2021/03/11 04:01:10;;;;;;;5.40;4.57;;;14.90;99.90;;;;;;5033406;28;20021;-63
2021/03/11 04:03:37;;;;;;;11.15;5.32;;;14.90;99.90;;;;;;5033419;28;20064;-63
2021/03/11 04:06:04;;;;;;;6.22;4.88;;;14.90;99.90;;;;;;5033397;28;20477;-63
2021/03/11 04:08:30;;;;;;;6.93;4.72;;;14.90;99.90;;;;;;5033280;28;20032;-64
2021/03/11 04:10:57;;;;;;;6.30;4.80;;;14.90;99.90;;;;;;5033289;28;20421;-64
2021/03/11 04:13:23;;;;;;;5.35;4.70;;;14.90;99.90;;;;;;5050706;28;20488;-65
2021/03/11 04:15:49;;;;;;;5.60;4.90;;;14.90;99.90;;;;;;5053128;28;20025;-64
2021/03/11 04:18:16;;;;;;;7.00;4.80;;;14.90;99.90;;;;;;5053039;28;20039;-64
2021/03/11 04:20:43;;;;;;;5.78;4.60;;;14.90;99.90;;;;;;5053030;28;20472;-64
2021/03/11 04:23:09;;;;;;;5.15;4.20;;;14.90;99.90;;;;;;5053111;28;20032;-64
2021/03/11 04:25:35;;;;;;;5.63;4.78;;;14.90;99.90;;;;;;5053040;28;20025;-62
2021/03/11 04:28:01;;;;;;;6.38;4.47;;;14.90;99.90;;;;;;5052866;28;20067;-63
2021/03/11 04:30:27;;;;;;;7.47;4.38;;;14.90;99.90;;;;;;5052955;28;20088;-63
2021/03/11 04:32:53;;;;;;;7.43;3.97;;;14.90;99.90;;;;;;5051635;28;20063;-63
2021/03/11 04:35:19;;;;;;;6.70;4.30;;;14.90;99.90;;;;;;5052650;28;20017;-63
2021/03/11 04:37:45;;;;;;;5.40;4.35;;;14.90;99.90;;;;;;5052715;28;20025;-64
2021/03/11 04:40:11;;;;;;;4.60;4.20;;;14.90;99.90;;;;;;5052552;28;20025;-64
2021/03/11 04:42:37;;;;;;;5.93;3.95;;;14.90;99.90;;;;;;5052526;28;20387;-64
2021/03/11 04:45:06;;;;;;;4.88;3.95;;;14.90;99.90;;;;;;5052779;28;20024;-62
2021/03/11 04:47:34;;;;;;;4.82;3.90;;;14.90;99.90;;;;;;5052102;28;20040;-63
2021/03/11 04:50:01;;;;;;;4.00;3.60;;;14.90;99.90;;;;;;5051053;28;20025;-65
2021/03/11 04:52:27;;;;;;;5.28;4.28;;;14.90;99.90;;;;;;5052623;28;20378;-65
2021/03/11 04:54:54;;;;;;;5.43;4.03;;;14.90;99.90;;;;;;5052511;28;20029;-64
2021/03/11 04:57:20;;;;;;;5.10;4.15;;;14.90;99.90;;;;;;5052364;28;20025;-63
2021/03/11 04:59:46;;;;;;;4.38;3.20;;;14.90;99.90;;;;;;5052242;28;20032;-64
2021/03/11 05:02:12;;;;;;;5.70;4.15;;;14.90;99.90;;;;;;5052276;28;20040;-65
2021/03/11 05:04:42;;;;;;;6.18;3.92;;;14.90;99.90;;;;;;5052206;28;20055;-65
2021/03/11 05:07:07;;;;;;;4.25;3.50;;;14.90;99.90;;;;;;5052185;28;20028;-65
2021/03/11 05:09:33;;;;;;;5.32;3.80;;;14.90;99.90;;;;;;5052091;28;20025;-66
2021/03/11 05:11:59;;;;;;;4.25;3.80;;;14.90;99.90;;;;;;5051888;28;20033;-67
2021/03/11 05:14:24;;;;;;;4.55;3.70;;;14.90;99.90;;;;;;5052308;28;20051;-64
2021/03/11 05:16:50;;;;;;;5.45;3.67;;;14.90;99.90;;;;;;5050716;28;20028;-67
2021/03/11 05:19:15;;;;;;;5.30;3.70;;;15.00;99.90;;;;;;5051943;28;20025;-66
2021/03/11 05:21:41;;;;;;;8.57;3.40;;;14.90;99.90;;;;;;5052024;28;20404;-66
2021/03/11 05:24:08;;;;;;;3.90;3.20;;;14.90;99.90;;;;;;5051707;28;20025;-67
2021/03/11 05:26:34;;;;;;;4.47;3.20;;;15.00;99.90;;;;;;5052069;28;20021;-66
2021/03/11 05:28:59;;;;;;;7.35;3.45;;;15.00;99.90;;;;;;5052074;28;20036;-62
2021/03/11 05:31:25;;;;;;;4.03;2.88;;;15.00;99.90;;;;;;5052251;28;20056;-65
2021/03/11 05:33:50;;;;;;;6.03;3.13;;;15.00;99.90;;;;;;5052145;28;20039;-65
2021/03/11 05:36:16;;;;;;;5.65;3.00;;;14.90;99.90;;;;;;5051824;28;20032;-63
2021/03/11 05:38:45;;;;;;;3.95;3.20;;;14.90;99.90;;;;;;5051893;28;20032;-64
2021/03/11 05:41:13;;;;;;;5.40;3.50;;;15.00;99.90;;;;;;5051561;28;20025;-64
2021/03/11 05:43:40;;;;;;;5.45;3.15;;;14.90;99.90;;;;;;5051402;28;20052;-64
2021/03/11 05:46:07;;;;;;;6.57;2.88;;;15.00;99.90;;;;;;5051724;28;20025;-63
2021/03/11 05:48:35;;;;;;;4.43;2.90;;;14.90;99.90;;;;;;5050903;28;20389;-64
2021/03/11 05:51:01;;;;;;;3.22;2.55;;;15.00;99.90;;;;;;5051495;28;20068;-64
2021/03/11 05:53:28;;;;;;;3.17;2.80;;;15.00;99.90;;;;;;5032162;28;20124;-64
2021/03/11 05:55:54;;;;;;;5.55;2.60;;;15.00;99.90;;;;;;5047091;28;20482;-64
2021/03/11 05:58:20;;;;;;;3.17;2.65;;;15.00;99.90;;;;;;5030306;28;20056;-63
2021/03/11 06:00:45;;;;;;;2.95;2.55;;;15.00;99.90;;;;;;5039051;28;20472;-64
2021/03/11 06:03:11;;;;;;;4.60;2.40;;;15.00;99.90;;;;;;5051178;28;20033;-64
2021/03/11 06:05:38;;;;;;;3.33;2.40;;;15.00;99.90;;;;;;5051584;28;20032;-64
2021/03/11 06:08:07;;;;;;;3.60;2.58;;;15.00;99.90;;;;;;5051606;28;20128;-64
2021/03/11 06:10:35;;;;;;;2.85;2.40;;;15.00;99.90;;;;;;5051140;28;20100;-64
2021/03/11 06:13:03;;;;;;;3.58;2.25;;;15.00;99.90;;;;;;5051817;28;20036;-64
2021/03/11 06:15:36;;;;;;;2.97;2.17;;;15.00;99.90;;;;;;5051797;28;20068;-64
2021/03/11 06:18:06;;;;;;;3.60;2.25;;;15.00;99.90;;;;;;5051703;28;20033;-64
2021/03/11 06:20:31;;;;;;;4.80;2.17;;;15.00;99.90;;;;;;5051654;28;20491;-65
2021/03/11 06:22:57;;;;;;;5.32;2.28;;;15.00;99.90;;;;;;5051078;28;20100;-65
2021/03/11 06:25:24;;;;;;;4.22;2.00;;;15.00;99.90;;;;;;5051478;28;20072;-65
2021/03/11 06:27:50;;;;;;;3.40;2.20;;;15.00;99.90;;;;;;5051400;28;20041;-65
2021/03/11 06:30:35;;;;;;;2.75;2.08;;;15.00;99.90;;;;;;5051053;28;20413;-64
2021/03/11 06:33:02;;;;;;;3.08;2.30;;;15.00;99.90;;;;;;5051816;28;20047;-64
2021/03/11 06:35:28;;;;;;;3.95;2.22;;;15.00;99.90;;;;;;5052652;28;20024;-65
2021/03/11 06:37:55;;;;;;;3.80;2.17;;;14.90;99.90;;;;;;5055073;28;20036;-65
2021/03/11 06:40:23;;;;;;;3.13;2.17;;;15.00;99.90;;;;;;5054298;28;20021;-68
2021/03/11 06:42:49;;;;;;;2.33;1.50;;;15.00;99.90;;;;;;5054857;28;20033;-67
2021/03/11 06:45:20;;;;;;;5.20;1.60;;;15.00;99.90;;;;;;5052433;28;20571;-67
2021/03/11 06:47:47;;;;;;;3.60;1.40;;;15.10;99.90;;;;;;5053314;28;20021;-66
2021/03/11 06:50:12;;;;;;;5.45;1.65;;;15.20;99.90;;;;;;5054908;28;20111;-65
2021/03/11 06:52:38;;;;;;;6.63;1.65;;;15.30;99.90;;;;;;5054446;28;20457;-63
2021/03/11 06:55:07;;;;;;;4.05;1.45;;;15.30;99.90;;;;;;5054896;28;20029;-65
2021/03/11 06:57:42;;;;;;;12.88;2.67;;;15.20;99.90;;;;;;5055013;28;20405;-67
2021/03/11 07:00:13;;;;;;;23.35;3.95;;;15.10;99.90;;;;;;5054762;28;20380;-67
2021/03/11 07:02:55;;;;;;;29.30;5.80;;;14.80;99.90;;;;;;5054403;28;20108;-65
2021/03/11 07:05:23;;;;;;;36.88;6.50;;;14.60;99.90;;;;;;5054568;28;20104;-67
2021/03/11 07:08:02;;;;;;;26.27;6.85;;;14.50;99.90;;;;;;5054458;28;20028;-69
2021/03/11 07:10:28;;;;;;;32.85;7.50;;;14.30;99.90;;;;;;5054194;28;20052;-70
2021/03/11 07:12:55;;;;;;;37.17;6.80;;;14.30;99.90;;;;;;5054253;28;20091;-70
2021/03/11 07:15:22;;;;;;;18.08;3.70;;;14.50;99.90;;;;;;5054044;28;20365;-71
2021/03/11 07:17:49;;;;;;;16.40;3.28;;;15.00;99.90;;;;;;5053882;28;20017;-67
2021/03/11 07:20:17;;;;;;;17.00;3.63;;;15.20;99.90;;;;;;5053027;28;20025;-66
2021/03/11 07:22:59;;;;;;;18.67;3.97;;;15.40;99.90;;;;;;5052965;28;20059;-66
2021/03/11 07:25:26;;;;;;;17.35;3.70;;;15.30;99.90;;;;;;5053797;28;20067;-68
2021/03/11 07:27:53;;;;;;;14.23;3.40;;;15.20;99.90;;;;;;5054091;28;20021;-67
2021/03/11 07:30:19;;;;;;;17.83;3.45;;;15.20;99.90;;;;;;5053177;28;20025;-65
2021/03/11 07:32:44;;;;;;;14.10;3.40;;;15.20;99.90;;;;;;5053785;28;20047;-61
2021/03/11 07:35:16;;;;;;;16.10;3.70;;;15.10;99.90;;;;;;5053894;28;20021;-66
2021/03/11 07:37:47;;;;;;;17.63;3.22;;;15.00;99.90;;;;;;5053902;28;20025;-67
2021/03/11 07:40:14;;;;;;;15.48;3.40;;;15.00;99.90;;;;;;5053014;28;20031;-67
2021/03/11 07:42:41;;;;;;;17.73;3.88;;;14.90;99.90;;;;;;5052220;28;20021;-63
2021/03/11 07:45:10;;;;;;;15.63;3.92;;;14.90;99.90;;;;;;5053206;28;20029;-67
2021/03/11 07:47:36;;;;;;;21.10;3.65;;;14.90;99.90;;;;;;5053028;28;20086;-64
2021/03/11 07:50:03;;;;;;;12.90;3.28;;;15.00;99.90;;;;;;5053698;28;20033;-68
2021/03/11 07:52:29;;;;;;;15.27;3.30;;;15.20;99.90;;;;;;5053351;28;20121;-66
2021/03/11 07:54:55;;;;;;;13.35;3.22;;;15.50;99.90;;;;;;5053598;28;20032;-65
2021/03/11 07:57:21;;;;;;;22.25;3.25;;;15.70;99.90;;;;;;5053557;28;20071;-67
2021/03/11 07:59:47;;;;;;;11.60;2.90;;;15.90;99.90;;;;;;5052285;28;20043;-67
2021/03/11 08:02:17;;;;;;;10.77;3.00;;;16.00;99.90;;;;;;5052766;28;20108;-65
2021/03/11 08:04:44;;;;;;;12.70;3.22;;;16.20;99.90;;;;;;5052852;28;20111;-62
2021/03/11 08:07:26;;;;;;;10.05;3.38;;;17.20;99.90;;;;;;5052985;28;20511;-65
2021/03/11 08:09:59;;;;;;;15.52;3.10;;;18.40;99.90;;;;;;5052878;28;20025;-62
2021/03/11 08:12:40;;;;;;;13.73;3.30;;;19.00;99.60;;;;;;5053199;28;20045;-64
2021/03/11 08:15:28;;;;;;;11.05;3.10;;;19.40;98.90;;;;;;5053470;28;20492;-64
2021/03/11 08:17:54;;;;;;;13.70;3.03;;;19.80;98.10;;;;;;5047601;28;20555;-63
2021/03/11 08:20:20;;;;;;;11.57;3.17;;;19.90;97.60;;;;;;5053196;28;20091;-61
2021/03/11 08:22:52;;;;;;;9.63;3.13;;;20.20;97.50;;;;;;5052928;28;20017;-63
2021/03/11 08:25:32;;;;;;;12.43;2.95;;;20.60;97.20;;;;;;5053211;28;20040;-63
2021/03/11 08:28:02;;;;;;;12.68;3.30;;;21.00;96.80;;;;;;5053199;28;20024;-62
2021/03/11 08:30:53;;;;;;;14.88;3.45;;;21.30;96.60;;;;;;5052951;28;20423;-61
2021/03/11 08:33:19;;;;;;;12.90;3.90;;;21.60;96.30;;;;;;5052857;28;20028;-63
2021/03/11 08:35:46;;;;;;;12.27;3.40;;;21.90;96.20;;;;;;5052874;28;20074;-61
2021/03/11 08:38:21;;;;;;;10.88;3.15;;;22.10;96.00;;;;;;5051990;28;20488;-62
2021/03/11 08:40:57;;;;;;;13.02;3.53;;;22.40;95.90;;;;;;5052597;28;20433;-61
2021/03/11 08:43:38;;;;;;;14.10;3.72;;;22.50;95.70;;;;;;5052821;28;20053;-63
2021/03/11 08:46:20;;;;;;;10.35;3.20;;;22.80;95.60;;;;;;5052787;28;20025;-64
2021/03/11 08:49:00;;;;;;;12.55;4.22;;;23.00;95.40;;;;;;5052507;28;20040;-62
2021/03/11 08:51:25;;;;;;;11.60;3.60;;;23.10;95.20;;;;;;5051860;28;20021;-63
2021/03/11 08:53:59;;;;;;;12.73;3.75;;;23.30;95.10;;;;;;5051585;28;20033;-63
2021/03/11 08:56:27;;;;;;;12.77;3.40;;;23.40;94.90;;;;;;5052416;28;20025;-64
2021/03/11 08:58:57;;;;;;;12.90;3.80;;;23.60;94.80;;;;;;5051833;28;20035;-62
2021/03/11 09:01:29;;;;;;;11.73;3.58;;;23.80;94.60;;;;;;5052960;28;20059;-64
2021/03/11 09:03:56;;;;;;;13.85;3.78;;;23.90;94.50;;;;;;5063664;28;20044;-64
2021/03/11 09:06:50;;;;;;;13.13;3.67;;;24.10;94.40;;;;;;5051742;28;20034;-64
2021/03/11 09:09:16;;;;;;;;;;;24.00;94.30;;;;;;5045085;28;20115;-65
2021/03/11 09:11:55;;;;;;;13.13;3.70;;;23.30;95.30;;;;;;5051870;28;19916;-67
2021/03/11 09:14:25;;;;;;;12.38;4.22;;;23.70;95.10;;;;;;5052194;28;20523;-68
2021/03/11 09:16:51;;;;;;;13.32;4.35;;;24.00;94.90;;;;;;5050384;28;20060;-68
2021/03/11 09:19:16;;;;;;;10.18;3.47;;;23.10;96.70;;;;;;5052133;28;20068;-64
2021/03/11 09:21:43;;;;;;;11.70;3.40;;;23.20;96.10;;;;;;5052092;28;20108;-64
2021/03/11 09:24:18;;;;;;;11.65;4.10;;;23.80;96.00;;;;;;5050993;28;20036;-65
2021/03/11 09:26:45;;;;;;;10.60;3.67;;;23.70;96.20;;;;;;5051973;28;20025;-64
2021/03/11 09:29:11;;;;;;;12.07;3.90;;;22.80;97.40;;;;;;5052143;28;20096;-66
2021/03/11 09:31:39;;;;;;;13.57;4.07;;;23.30;96.90;;;;;;5051902;28;20530;-65
2021/03/11 09:34:05;;;;;;;12.38;4.15;;;23.90;96.40;;;;;;5052115;28;20060;-65
2021/03/11 09:36:31;;;;;;;10.07;3.75;;;23.50;97.40;;;;;;5050885;28;20100;-67
2021/03/11 09:39:07;;;;;;;13.65;3.50;;;22.90;97.80;;;;;;5051610;28;20028;-66
2021/03/11 09:41:35;;;;;;;13.38;3.92;;;23.50;97.20;;;;;;5051817;28;20052;-68
2021/03/11 09:44:06;;;;;;;12.20;3.97;;;23.80;96.90;;;;;;5051829;28;20021;-68
2021/03/11 09:46:33;;;;;;;10.13;3.33;;;23.00;98.30;;;;;;5051842;28;20021;-67
2021/03/11 09:48:59;;;;;;;11.73;3.40;;;23.10;98.10;;;;;;5049914;28;20466;-68
2021/03/11 09:51:34;;;;;;;14.10;4.35;;;23.90;97.30;;;;;;5051768;28;20036;-68
2021/03/11 09:54:03;;;;;;;13.68;4.00;;;23.50;98.30;;;;;;5051910;28;20033;-68
2021/03/11 09:56:30;;;;;;;10.82;3.47;;;22.80;98.90;;;;;;5051894;28;20022;-69
2021/03/11 09:59:02;;;;;;;12.07;3.60;;;23.30;98.20;;;;;;5051658;28;20029;-67
2021/03/11 10:01:33;;;;;;;12.93;3.80;;;23.70;98.00;;;;;;5051243;28;20367;-67
2021/03/11 10:04:02;;;;;;;13.80;3.63;;;23.00;99.20;;;;;;5051798;28;20052;-69
2021/03/11 10:06:30;;;;;;;9.63;3.45;;;23.00;98.90;;;;;;5051552;28;20519;-67
2021/03/11 10:08:57;;;;;;;9.05;3.47;;;23.90;98.00;;;;;;5051596;28;20032;-67
2021/03/11 10:11:33;;;;;;;13.75;3.78;;;23.40;98.90;;;;;;5054554;28;20047;-66
2021/03/11 10:14:03;;;;;;;12.77;3.72;;;22.70;99.40;;;;;;5055619;28;20035;-66
2021/03/11 10:16:31;;;;;;;13.35;4.13;;;23.30;98.60;;;;;;5055153;28;20028;-66
2021/03/11 10:19:18;;;;;;;9.45;3.72;;;23.60;98.40;;;;;;5055428;28;20037;-66
2021/03/11 10:21:55;;;;;;;12.25;3.47;;;23.00;99.40;;;;;;5054993;28;20384;-65
2021/03/11 10:24:41;;;;;;;10.52;3.45;;;23.00;99.10;;;;;;5035465;28;20385;-66
2021/03/11 10:27:26;;;;;;;10.80;3.15;;;23.70;98.20;;;;;;5035528;28;20441;-66
2021/03/11 10:30:12;;;;;;;11.55;3.65;;;23.10;99.90;;;;;;5037414;28;20029;-66
2021/03/11 10:32:40;;;;;;;9.15;3.38;;;22.80;99.30;;;;;;5035234;28;20052;-67
2021/03/11 10:35:07;;;;;;;10.52;3.63;;;23.70;98.30;;;;;;5035371;28;20029;-64
2021/03/11 10:37:38;;;;;;;10.88;3.47;;;23.30;99.10;;;;;;5035188;28;20025;-65
2021/03/11 10:40:09;;;;;;;9.85;2.90;;;22.70;99.40;;;;;;5035129;28;20037;-64
2021/03/11 10:42:43;;;;;;;12.07;3.65;;;23.30;98.80;;;;;;5034935;28;20083;-65
2021/03/11 10:45:09;;;;;;;;;;;23.50;98.30;;;;;;5040600;28;20028;-67
2021/03/11 10:47:35;;;;;;;10.65;3.40;;;22.80;98.40;;;;;;5054983;28;20399;-64
2021/03/11 10:50:00;;;;;;;8.15;3.33;;;22.90;97.20;;;;;;5054757;28;20068;-65
2021/03/11 10:52:26;;;;;;;11.65;4.15;;;23.50;95.30;;;;;;5054702;28;20033;-64
2021/03/11 10:54:52;;;;;;;11.68;3.25;;;23.90;94.00;;;;;;5054697;28;20040;-65
2021/03/11 10:57:20;;;;;;;9.60;3.13;;;24.20;93.00;;;;;;5054732;28;20021;-65
2021/03/11 10:59:51;;;;;;;11.27;3.22;;;24.40;92.60;;;;;;5054815;28;20484;-65
2021/03/11 11:02:17;;;;;;;9.77;3.65;;;24.50;92.00;;;;;;5047029;28;20104;-64
2021/03/11 11:04:43;;;;;;;10.68;3.22;;;24.60;91.70;;;;;;5054542;28;20095;-65
2021/03/11 11:07:09;;;;;;;10.88;3.65;;;24.70;91.40;;;;;;5054506;28;20029;-65
2021/03/11 11:09:35;;;;;;;10.52;3.33;;;24.90;91.20;;;;;;5054370;28;20052;-64
2021/03/11 11:12:01;;;;;;;9.13;3.05;;;24.90;91.00;;;;;;5054336;28;20036;-67
2021/03/11 11:14:27;;;;;;;11.40;3.58;;;25.00;90.70;;;;;;5054438;28;20025;-67
2021/03/11 11:16:53;;;;;;;11.20;3.13;;;24.40;91.70;;;;;;5052552;28;20083;-67
2021/03/11 11:19:18;;;;;;;12.07;3.83;;;23.70;92.60;;;;;;5053304;28;20037;-67
2021/03/11 11:21:44;;;;;;;11.13;3.83;;;23.10;93.40;;;;;;5052286;28;20025;-68
2021/03/11 11:24:10;;;;;;;9.18;3.38;;;22.80;94.00;;;;;;5055766;28;20033;-67
2021/03/11 11:26:36;;;;;;;7.68;2.95;;;22.50;94.50;;;;;;5053392;28;20104;-68
2021/03/11 11:29:05;;;;;;;9.48;3.10;;;22.30;95.00;;;;;;5053853;28;20025;-67
2021/03/11 11:31:32;;;;;;;9.18;3.05;;;22.10;95.30;;;;;;5053506;28;20051;-68
2021/03/11 11:33:58;;;;;;;11.73;3.47;;;22.00;95.60;;;;;;5053659;28;20033;-67
2021/03/11 11:36:23;;;;;;;10.73;3.30;;;21.90;95.90;;;;;;5052924;28;20021;-67
2021/03/11 11:38:50;;;;;;;10.32;3.15;;;21.70;96.20;;;;;;5053756;28;20033;-67
2021/03/11 11:41:17;;;;;;;9.05;3.28;;;21.60;96.50;;;;;;5053843;28;20070;-68
2021/03/11 11:43:43;;;;;;;13.57;3.83;;;21.50;96.80;;;;;;5052245;28;20519;-67
2021/03/11 11:46:09;;;;;;;10.20;3.38;;;21.50;96.90;;;;;;5052553;28;20073;-67
2021/03/11 11:48:34;;;;;;;8.20;2.92;;;21.40;97.10;;;;;;5051580;28;20032;-66
2021/03/11 11:51:00;;;;;;;9.40;3.30;;;21.30;97.20;;;;;;5052903;28;20388;-67
2021/03/11 11:53:25;;;;;;;10.15;3.47;;;21.20;97.20;;;;;;5052634;28;20553;-67
2021/03/11 11:55:51;;;;;;;9.32;2.50;;;21.00;97.00;;;;;;5052915;28;20025;-67
2021/03/11 11:58:17;;;;;;;9.18;3.05;;;20.90;97.00;;;;;;5053673;28;20029;-67
2021/03/11 12:00:43;;;;;;;10.98;3.22;;;20.80;96.80;;;;;;5053369;28;20022;-67
2021/03/11 12:03:09;;;;;;;9.18;2.90;;;20.70;96.60;;;;;;5052337;28;20024;-67
2021/03/11 12:05:35;;;;;;;8.25;2.90;;;20.60;96.30;;;;;;5051959;28;20029;-67
2021/03/11 12:08:01;;;;;;;8.50;2.83;;;20.60;96.10;;;;;;5052390;28;20021;-67
2021/03/11 12:10:26;;;;;;;8.05;2.65;;;20.50;96.30;;;;;;5051687;28;20155;-67
2021/03/11 12:12:52;;;;;;;8.13;2.88;;;20.40;95.90;;;;;;5053197;28;20477;-67
2021/03/11 12:15:18;;;;;;;9.65;3.10;;;20.40;95.80;;;;;;5052697;28;20032;-67
2021/03/11 12:17:43;;;;;;;6.90;2.28;;;20.40;95.80;;;;;;5052918;28;20025;-67
2021/03/11 12:20:09;;;;;;;8.80;2.70;;;20.30;95.70;;;;;;5052586;28;20508;-67
2021/03/11 12:22:35;;;;;;;9.02;2.72;;;20.30;95.70;;;;;;5052781;28;20384;-67
2021/03/11 12:25:01;;;;;;;7.43;2.53;;;20.20;95.60;;;;;;5052056;28;20025;-66
2021/03/11 12:27:26;;;;;;;8.65;2.65;;;20.20;95.60;;;;;;5051508;28;20108;-67
2021/03/11 12:29:53;;;;;;;8.48;2.47;;;20.10;95.50;;;;;;5052274;28;20024;-67
2021/03/11 12:32:19;;;;;;;9.10;2.55;;;20.10;95.50;;;;;;5052652;28;20067;-67
2021/03/11 12:34:45;;;;;;;9.75;2.40;;;20.10;95.50;;;;;;5050840;28;20592;-67
2021/03/11 12:37:12;;;;;;;9.93;2.38;;;20.10;95.40;;;;;;5051748;28;20124;-67
2021/03/11 12:39:37;;;;;;;9.13;2.72;;;20.10;95.60;;;;;;5051297;28;20056;-67
2021/03/11 12:42:03;;;;;;;7.65;2.70;;;20.10;95.90;;;;;;5051628;28;20056;-67
2021/03/11 12:44:29;;;;;;;8.30;2.30;;;20.10;95.90;;;;;;5048231;28;20121;-67
2021/03/11 12:46:55;;;;;;;9.65;2.10;;;20.10;95.90;;;;;;5051231;28;20024;-66
2021/03/11 12:49:21;;;;;;;8.07;2.08;;;20.00;95.90;;;;;;5051251;28;20079;-67